Terminal Aerodrome Forecast
Issued by NWS Memphis, TN

Home | Current Version | Previous Version | Text Only | Print | Product List | Glossary On
Versions: 1 2 3 4 5 6 7 8 9 10 11 12 13
000
FTUS44 KMEG 021400 AAA
TAFMKL
TAF AMD
KMKL 021451Z 0215/0312 17006KT P6SM SCT015 BKN070
     FM021500 19011KT P6SM BKN010
     FM021900 19010KT P6SM VCTS SCT025 BKN040CB
     FM030000 18007KT P6SM BKN040 BKN150
     FM030300 17007KT P6SM -SHRA VCTS SCT040CB OVC100
      TEMPO 0304/0306 27010G25KT 3SM +TSRA OVC015CB
     FM031000 27010KT 6SM -SHRA SCT015 OVC040=

USA.gov is the U.S. government's official web portal to all federal, state and local government web resources and services.